Kinrooi, Belgium
Current Conditions -  °F | °C
As of 6:25 AM on Monday 22 Dec 2014 (Local Time) from EBBL Reporting Station
Broken Clouds Broken Clouds  
Wind Chill: 41°   Ceiling: 1400
Heat Index: 48°   Visibility: 6mi
Dew Point: 45°   Wind: 20mph
Humidity: 87%   Direction: 220°SW
Pressure: 30.12"   Gusts: NA
Location:  51.15°N, 5.74°E
Report Text: EBBL 220525Z 22017KT 9999 BKN014 09/07 Q1020 GRN GRN
Loading
Personal Weather Stations






























Interactive Weather Map New forecast layout! Learn more

10-Day Weather Forecast

Advertisements
Track Severe Weather on mobile